createdAt,value
2018-07-08T14:46:36.628Z,2.10
2018-07-08T14:49:04.855Z,1.98
2018-07-08T14:51:33.055Z,2.17
2018-07-08T14:54:01.231Z,1.87
2018-07-08T14:56:29.404Z,1.90
2018-07-08T14:58:58.003Z,1.60
2018-07-08T15:01:26.239Z,2.17
2018-07-08T15:03:54.407Z,1.70
2018-07-08T15:06:22.632Z,1.60
2018-07-08T15:08:50.952Z,2.00
2018-07-08T15:11:19.131Z,1.80
2018-07-08T15:13:47.328Z,1.72
2018-07-08T15:16:15.689Z,1.50
2018-07-08T15:18:44.312Z,1.62
2018-07-08T15:21:12.572Z,1.90
2018-07-08T15:23:40.808Z,1.70
2018-07-08T15:26:09.019Z,1.67
2018-07-08T15:28:37.258Z,2.07
2018-07-08T15:31:05.400Z,1.70
2018-07-08T15:33:33.564Z,1.53
2018-07-08T15:36:01.739Z,1.83
2018-07-08T15:38:29.923Z,1.80
2018-07-08T15:40:58.084Z,2.00
2018-07-08T15:43:26.225Z,1.97
2018-07-08T15:45:54.406Z,1.73
2018-07-08T15:48:22.680Z,1.57
2018-07-08T15:50:50.863Z,1.50
2018-07-08T15:53:19.095Z,1.97
2018-07-08T15:55:47.432Z,1.90
2018-07-08T15:58:15.644Z,2.40
2018-07-08T16:00:43.820Z,1.77
2018-07-08T16:03:12.025Z,1.67
2018-07-08T16:05:40.203Z,1.67
2018-07-08T16:08:08.394Z,2.07
2018-07-08T16:10:36.528Z,1.90
2018-07-08T16:13:04.725Z,1.77
2018-07-08T16:15:32.926Z,1.80
2018-07-08T16:18:01.097Z,1.70
2018-07-08T16:20:29.289Z,1.70
2018-07-08T16:22:57.465Z,1.60
2018-07-08T16:25:25.633Z,1.60
2018-07-08T16:27:53.829Z,1.80
2018-07-08T16:30:22.033Z,1.60
2018-07-08T16:32:50.213Z,1.90
2018-07-08T16:35:18.434Z,1.90
2018-07-08T16:37:46.621Z,1.97
2018-07-08T16:40:14.861Z,1.67
2018-07-08T16:42:43.666Z,2.43
2018-07-08T16:45:11.858Z,1.70
2018-07-08T16:47:40.066Z,1.80
2018-07-08T16:50:08.241Z,1.70
2018-07-08T16:52:36.182Z,2.07
2018-07-08T16:55:04.222Z,2.20
2018-07-08T16:57:32.162Z,1.90
2018-07-08T17:00:00.104Z,2.13
2018-07-08T17:02:28.115Z,1.70
2018-07-08T17:04:56.018Z,1.57
2018-07-08T17:07:24.242Z,1.77
2018-07-08T17:09:52.166Z,2.10
2018-07-08T17:12:20.147Z,1.90
2018-07-08T17:14:48.091Z,2.07
2018-07-08T17:17:16.034Z,1.80
2018-07-08T17:19:44.066Z,1.80
2018-07-08T17:22:12.102Z,1.77
2018-07-08T17:24:40.405Z,1.60
2018-07-08T17:27:08.369Z,1.83
2018-07-08T17:29:36.326Z,1.90
2018-07-08T17:32:04.257Z,2.20
2018-07-08T17:34:32.293Z,1.50
2018-07-08T17:37:00.248Z,1.60
2018-07-08T17:39:28.258Z,2.07
2018-07-08T17:41:56.173Z,1.57
2018-07-08T17:44:24.173Z,1.73
2018-07-08T17:46:52.087Z,1.83
2018-07-08T17:49:20.077Z,1.57
2018-07-08T17:51:48.206Z,1.87
2018-07-08T17:54:16.182Z,1.87
2018-07-08T17:56:44.145Z,1.80
2018-07-08T17:59:12.146Z,1.83
2018-07-08T18:01:40.097Z,1.70
2018-07-08T18:04:08.041Z,1.90
2018-07-08T18:06:36.077Z,2.30
2018-07-08T18:09:05.273Z,2.13
2018-07-08T18:11:33.241Z,1.90
2018-07-08T18:14:01.222Z,2.13
2018-07-08T18:16:29.136Z,2.00
2018-07-08T18:18:57.066Z,2.00
2018-07-08T18:21:25.105Z,2.17
2018-07-08T18:23:53.072Z,2.17
2018-07-08T18:26:21.008Z,1.90
2018-07-08T21:21:38.971Z,3.07
2018-07-08T21:24:06.968Z,2.93
2018-07-08T21:26:34.920Z,2.20
2018-07-08T21:29:03.016Z,2.77
2018-07-08T21:31:30.929Z,2.80
2018-07-08T21:33:58.925Z,2.40
2018-07-08T21:36:26.874Z,2.60
2018-07-08T21:38:54.825Z,2.67
2018-07-08T21:41:22.764Z,2.40
2018-07-08T21:43:50.741Z,2.50
2018-07-08T21:46:18.677Z,2.60
2018-07-08T21:48:46.608Z,2.77
2018-07-08T21:51:14.646Z,2.40
2018-07-08T21:53:42.695Z,2.57
2018-07-08T21:56:11.219Z,2.90
2018-07-08T21:58:39.175Z,3.00
2018-07-08T22:01:12.595Z,3.20
2018-07-08T22:03:40.987Z,2.87
2018-07-08T22:06:08.902Z,3.00
2018-07-08T22:08:36.868Z,3.00
2018-07-08T22:11:05.863Z,2.83
2018-07-08T22:13:33.887Z,2.70
2018-07-08T22:16:02.059Z,2.50
2018-07-08T22:18:30.221Z,2.67
2018-07-08T22:20:58.175Z,2.63
2018-07-08T22:23:26.117Z,2.70
2018-07-08T22:25:54.079Z,2.80
2018-07-08T22:28:22.009Z,2.63
2018-07-08T22:30:49.968Z,3.00
2018-07-08T22:33:18.404Z,2.73
2018-07-08T22:35:46.443Z,2.43
2018-07-08T22:38:14.455Z,2.70
2018-07-08T22:40:42.547Z,2.57
2018-07-08T22:43:10.491Z,2.60
2018-07-08T22:45:38.449Z,2.50
2018-07-08T22:48:06.387Z,2.83
2018-07-08T22:50:34.862Z,2.80
2018-07-08T22:53:02.955Z,2.70
2018-07-08T22:55:30.896Z,2.50
2018-07-08T22:57:58.862Z,2.60
2018-07-08T23:00:32.364Z,2.80
2018-07-08T23:03:05.927Z,2.77
2018-07-08T23:05:33.875Z,3.00
2018-07-08T23:08:01.860Z,3.03
2018-07-08T23:10:29.795Z,2.43
2018-07-08T23:12:57.727Z,2.43
2018-07-08T23:15:25.659Z,2.70
2018-07-08T23:17:53.732Z,2.70
2018-07-08T23:20:21.668Z,2.73
2018-07-08T23:22:55.740Z,2.80
2018-07-08T23:25:23.672Z,3.73
2018-07-08T23:27:51.632Z,2.97
2018-07-08T23:30:19.556Z,2.70
2018-07-08T23:32:47.528Z,2.70
2018-07-08T23:35:15.475Z,2.60
2018-07-08T23:37:43.408Z,2.57
2018-07-08T23:40:11.406Z,2.40
2018-07-08T23:42:39.331Z,2.80
2018-07-08T23:45:07.272Z,2.53
2018-07-08T23:47:35.297Z,2.67
2018-07-08T23:50:03.240Z,2.60
2018-07-08T23:52:31.168Z,3.40
2018-07-08T23:54:59.099Z,2.70
2018-07-08T23:57:27.025Z,2.93
2018-07-08T23:59:54.984Z,3.00
